createdAt,value
2019-04-10T00:01:17.798Z,29.40
2019-04-10T00:03:48.848Z,29.40
2019-04-10T00:06:19.453Z,29.50
2019-04-10T00:08:50.573Z,29.40
2019-04-10T00:11:21.179Z,29.30
2019-04-10T00:13:51.577Z,29.40
2019-04-10T00:16:22.408Z,29.40
2019-04-10T00:18:53.946Z,29.90
2019-04-10T00:21:25.699Z,29.30
2019-04-10T00:23:56.186Z,29.30
2019-04-10T00:26:27.775Z,29.30
2019-04-10T00:28:58.397Z,29.30
2019-04-10T00:31:29.879Z,29.30
2019-04-10T00:34:01.036Z,29.30
2019-04-10T00:36:31.750Z,29.30
2019-04-10T00:39:02.353Z,29.30
2019-04-10T00:41:34.495Z,29.30
2019-04-10T00:44:05.761Z,29.30
2019-04-10T00:46:36.397Z,29.20
2019-04-10T00:49:07.182Z,29.20
2019-04-10T00:51:37.852Z,29.20
2019-04-10T00:54:08.315Z,29.20
2019-04-10T00:56:38.967Z,29.20
2019-04-10T00:59:10.257Z,29.20
2019-04-10T01:01:40.857Z,29.20
2019-04-10T01:04:12.298Z,29.10
2019-04-10T01:06:42.863Z,29.20
2019-04-10T01:09:13.348Z,29.70
2019-04-10T01:11:43.790Z,29.10
2019-04-10T01:14:14.235Z,29.20
2019-04-10T01:16:57.763Z,29.70
2019-04-10T01:19:28.382Z,29.00
2019-04-10T01:21:58.955Z,29.10
2019-04-10T01:24:29.994Z,29.10
2019-04-10T01:27:01.318Z,29.00
2019-04-10T01:29:32.144Z,29.00
2019-04-10T01:32:03.582Z,29.10
2019-04-10T01:34:34.206Z,28.90
2019-04-10T01:37:04.854Z,28.90
2019-04-10T01:39:35.393Z,28.90
2019-04-10T01:42:06.172Z,28.90
2019-04-10T01:44:36.866Z,28.60
2019-04-10T01:47:07.382Z,28.90
2019-04-10T01:49:37.954Z,28.90
2019-04-10T01:52:08.926Z,28.90
2019-04-10T01:54:39.618Z,28.90
2019-04-10T01:57:10.361Z,28.90
2019-04-10T01:59:42.450Z,28.90
2019-04-10T02:02:25.356Z,28.90
2019-04-10T02:04:56.788Z,28.90
2019-04-10T02:07:27.362Z,28.80
2019-04-10T02:09:57.844Z,28.80
2019-04-10T02:12:28.517Z,28.80
2019-04-10T02:14:59.077Z,28.80
2019-04-10T02:17:30.852Z,28.80
2019-04-10T02:20:01.279Z,28.80
2019-04-10T02:22:32.815Z,28.70
2019-04-10T02:25:03.457Z,28.70
2019-04-10T02:27:34.356Z,28.70
2019-04-10T02:30:07.693Z,28.70
2019-04-10T02:32:39.234Z,28.70
2019-04-10T02:35:24.568Z,28.70
2019-04-10T02:37:56.171Z,28.70
2019-04-10T02:40:26.922Z,28.70
2019-04-10T02:42:58.867Z,28.70
2019-04-10T02:45:30.170Z,28.70
2019-04-10T02:48:01.624Z,28.70
2019-04-10T02:50:33.227Z,28.60
2019-04-10T02:53:05.356Z,28.80
2019-04-10T02:55:36.608Z,28.70
2019-04-10T02:58:07.936Z,28.60
2019-04-10T03:00:39.672Z,28.60
2019-04-10T03:03:11.862Z,28.60
2019-04-10T03:05:42.640Z,28.60
2019-04-10T03:08:50.547Z,28.60
2019-04-10T03:11:08.373Z,28.60
2019-04-10T03:13:38.105Z,28.50
2019-04-10T03:16:09.198Z,28.50
2019-04-10T03:18:41.333Z,28.60
2019-04-10T03:21:13.757Z,28.50
2019-04-10T03:23:45.355Z,28.50
2019-04-10T03:26:34.985Z,28.50
2019-04-10T03:29:05.440Z,28.50
2019-04-10T03:31:36.889Z,28.40
2019-04-10T03:34:21.835Z,28.40
2019-04-10T03:39:31.714Z,28.40
2019-04-10T03:42:01.344Z,28.50
2019-04-10T03:44:32.540Z,28.50
2019-04-10T03:47:07.084Z,28.40
2019-04-10T03:49:36.545Z,28.50
2019-04-10T03:52:07.230Z,28.40
2019-04-10T03:54:38.982Z,28.40
2019-04-10T03:57:29.633Z,28.40
2019-04-10T04:00:00.127Z,28.40
2019-04-10T04:02:33.794Z,28.40
2019-04-10T04:05:04.442Z,28.40
2019-04-10T04:07:34.867Z,28.40
2019-04-10T04:10:06.438Z,28.40
2019-04-10T04:12:37.094Z,28.30
2019-04-10T04:15:07.472Z,28.30
2019-04-10T04:17:38.028Z,28.40
2019-04-10T04:22:39.106Z,28.30
2019-04-10T04:25:10.665Z,28.30
2019-04-10T04:27:42.041Z,28.30
2019-04-10T04:30:11.120Z,28.40
2019-04-10T04:32:42.088Z,28.90
2019-04-10T04:35:13.232Z,28.20
2019-04-10T04:37:44.293Z,28.80
2019-04-10T04:40:14.232Z,28.30
2019-04-10T04:45:35.493Z,28.40
2019-04-10T04:48:26.708Z,28.40
2019-04-10T04:51:03.316Z,28.40
2019-04-10T04:53:34.363Z,28.40
2019-04-10T04:56:05.869Z,28.50
2019-04-10T04:58:36.324Z,28.50
2019-04-10T05:01:06.876Z,28.40
2019-04-10T05:03:37.545Z,28.40
2019-04-10T05:06:09.740Z,28.40
2019-04-10T05:08:42.050Z,28.30
2019-04-10T05:11:15.039Z,28.40
2019-04-10T05:13:45.487Z,28.30
2019-04-10T05:16:16.707Z,28.30
2019-04-10T05:18:47.704Z,28.30
2019-04-10T05:23:51.374Z,28.40
2019-04-10T05:26:22.829Z,28.40
2019-04-10T05:28:53.594Z,28.50
2019-04-10T05:31:24.141Z,28.50
2019-04-10T05:34:03.482Z,28.50
2019-04-10T05:36:37.775Z,28.40
2019-04-10T05:39:53.936Z,28.40
2019-04-10T05:42:23.327Z,28.40
2019-04-10T05:44:53.779Z,28.40
2019-04-10T05:47:44.368Z,28.50
2019-04-10T05:50:15.103Z,28.50
2019-04-10T05:52:45.517Z,28.60
2019-04-10T05:55:16.186Z,28.40
2019-04-10T05:57:46.940Z,28.40
2019-04-10T06:00:20.832Z,28.40
2019-04-10T06:02:50.972Z,28.40
2019-04-10T06:07:49.366Z,28.30
2019-04-10T06:10:40.133Z,28.40
2019-04-10T06:13:10.987Z,29.10
2019-04-10T06:16:13.102Z,28.50
2019-04-10T06:19:16.520Z,28.50
2019-04-10T06:21:52.659Z,28.60
2019-04-10T06:24:26.269Z,27.80
2019-04-10T06:27:01.878Z,27.80
2019-04-10T06:29:35.037Z,27.30
2019-04-10T06:32:25.476Z,27.70
2019-04-10T06:35:26.524Z,27.80
2019-04-10T06:40:33.464Z,26.90
2019-04-10T06:43:04.487Z,26.90
2019-04-10T06:45:37.843Z,27.90
2019-04-10T06:48:08.937Z,27.70
2019-04-10T06:50:39.494Z,27.80
2019-04-10T06:53:10.357Z,28.20
2019-04-10T06:55:41.254Z,27.80
2019-04-10T06:58:11.735Z,27.70
2019-04-10T07:00:45.637Z,27.80
2019-04-10T07:03:14.851Z,27.80
2019-04-10T07:06:00.523Z,27.50
2019-04-10T07:08:19.924Z,27.90
2019-04-10T07:10:55.407Z,28.50
2019-04-10T07:13:21.498Z,28.50
2019-04-10T07:15:54.504Z,28.90
2019-04-10T07:18:30.931Z,28.60
2019-04-10T07:24:01.218Z,25.70
2019-04-10T07:26:40.352Z,24.40
2019-04-10T07:29:08.936Z,25.20
2019-04-10T07:31:39.979Z,26.80
2019-04-10T07:34:15.033Z,26.30
2019-04-10T07:36:46.858Z,26.50
2019-04-10T07:39:21.533Z,26.70
2019-04-10T07:41:53.583Z,26.90
2019-04-10T07:44:24.335Z,26.90
2019-04-10T07:46:58.297Z,26.80
2019-04-10T07:49:39.494Z,27.10
2019-04-10T07:52:12.394Z,28.10
2019-04-10T07:54:44.703Z,27.20
2019-04-10T07:57:16.039Z,27.20
2019-04-10T07:59:46.776Z,27.50
2019-04-10T08:02:17.393Z,27.40
2019-04-10T08:04:48.446Z,27.40
2019-04-10T08:07:29.816Z,27.50
2019-04-10T08:09:56.839Z,28.10
2019-04-10T08:12:39.744Z,28.60
2019-04-10T08:15:29.454Z,27.60
2019-04-10T08:18:10.056Z,26.90
2019-04-10T08:21:55.117Z,25.20
2019-04-10T08:24:28.037Z,24.80
2019-04-10T08:28:47.464Z,26.50
2019-04-10T08:31:22.308Z,27.20
2019-04-10T08:33:52.666Z,27.10
2019-04-10T08:36:25.584Z,27.50
2019-04-10T08:38:57.673Z,27.40
2019-04-10T08:41:30.690Z,28.00
2019-04-10T08:44:02.153Z,27.30
2019-04-10T08:46:33.697Z,27.50
2019-04-10T08:49:05.635Z,27.80
2019-04-10T08:51:37.938Z,28.80
2019-04-10T08:54:08.532Z,28.10
2019-04-10T08:56:40.917Z,27.80
2019-04-10T08:59:11.789Z,27.70
2019-04-10T09:01:42.425Z,27.60
2019-04-10T09:04:14.555Z,28.10
2019-04-10T09:06:49.465Z,27.70
2019-04-10T09:09:21.540Z,25.60
2019-04-10T09:11:55.566Z,25.60
2019-04-10T09:14:37.159Z,25.60
2019-04-10T09:17:11.384Z,25.60
2019-04-10T09:19:42.330Z,25.50
2019-04-10T09:22:12.882Z,27.20
2019-04-10T09:25:24.950Z,28.20
2019-04-10T09:27:58.468Z,28.10
2019-04-10T09:30:30.909Z,29.30
2019-04-10T09:33:15.680Z,29.50
2019-04-10T09:35:36.487Z,30.00
2019-04-10T09:38:10.958Z,30.00
2019-04-10T09:40:44.979Z,29.40
2019-04-10T09:43:29.540Z,30.70
2019-04-10T09:46:04.278Z,31.10
2019-04-10T09:48:42.147Z,31.70
2019-04-10T09:51:16.231Z,32.70
2019-04-10T09:53:46.029Z,32.20
2019-04-10T09:56:17.275Z,32.00
2019-04-10T09:58:53.282Z,31.10
2019-04-10T10:01:28.795Z,32.20
2019-04-10T10:04:13.228Z,32.90
2019-04-10T10:06:47.327Z,32.00
2019-04-10T10:09:19.666Z,30.00
2019-04-10T10:11:51.374Z,27.10
2019-04-10T10:14:23.089Z,27.40
2019-04-10T10:16:53.618Z,27.90
2019-04-10T10:19:27.642Z,28.30
2019-04-10T10:22:01.631Z,29.30
2019-04-10T10:24:30.938Z,26.90
2019-04-10T10:27:05.259Z,29.20
2019-04-10T10:29:37.638Z,26.80
2019-04-10T10:32:08.719Z,28.30
2019-04-10T10:34:41.424Z,27.50
2019-04-10T10:37:19.023Z,26.70
2019-04-10T10:39:50.655Z,27.10
2019-04-10T10:42:21.542Z,27.80
2019-04-10T10:44:51.929Z,28.40
2019-04-10T10:47:22.347Z,28.60
2019-04-10T10:49:53.154Z,28.30
2019-04-10T10:52:25.723Z,27.90
2019-04-10T10:54:56.939Z,28.50
2019-04-10T10:57:29.347Z,28.50
2019-04-10T11:00:02.139Z,25.90
2019-04-10T11:02:34.454Z,24.20
2019-04-10T11:05:11.073Z,26.70
2019-04-10T11:07:42.783Z,26.50
2019-04-10T11:10:14.694Z,28.10
2019-04-10T11:12:55.291Z,28.20
2019-04-10T11:15:27.846Z,27.80
2019-04-10T11:17:59.916Z,25.40
2019-04-10T11:20:32.171Z,24.70
2019-04-10T11:23:04.234Z,28.50
2019-04-10T11:25:38.201Z,30.00
2019-04-10T11:28:10.329Z,31.10
2019-04-10T11:30:41.172Z,30.20
2019-04-10T11:33:12.446Z,29.60
2019-04-10T11:35:43.933Z,30.40
2019-04-10T11:38:17.551Z,30.20
2019-04-10T11:40:52.212Z,29.00
2019-04-10T11:43:24.885Z,27.60
2019-04-10T11:46:01.475Z,28.90
2019-04-10T11:48:31.206Z,29.00
2019-04-10T11:51:03.883Z,28.60
2019-04-10T11:56:36.231Z,28.40
2019-04-10T11:59:09.811Z,27.90
2019-04-10T12:01:40.595Z,28.20
2019-04-10T12:04:18.139Z,26.20
2019-04-10T12:06:54.065Z,26.80
2019-04-10T12:10:16.889Z,26.40
2019-04-10T12:12:03.590Z,27.00
2019-04-10T12:14:35.416Z,25.50
2019-04-10T12:17:11.671Z,24.80
2019-04-10T12:19:42.485Z,27.30
2019-04-10T12:22:13.670Z,27.40
2019-04-10T12:24:49.628Z,26.90
2019-04-10T12:27:23.067Z,27.60
2019-04-10T12:29:53.787Z,29.00
2019-04-10T12:32:33.085Z,29.80
2019-04-10T12:35:06.854Z,30.10
2019-04-10T12:37:41.265Z,29.20
2019-04-10T12:40:13.946Z,29.10
2019-04-10T12:42:46.549Z,29.60
2019-04-10T12:45:20.351Z,30.20
2019-04-10T12:47:54.333Z,29.60
2019-04-10T12:50:28.741Z,29.80
2019-04-10T12:52:59.424Z,30.00
2019-04-10T12:55:38.834Z,29.90
2019-04-10T12:58:13.625Z,30.10
2019-04-10T13:00:50.591Z,30.30
2019-04-10T13:03:41.160Z,30.20
2019-04-10T13:09:15.981Z,30.60
2019-04-10T13:11:46.860Z,29.80
2019-04-10T13:14:19.192Z,27.80
2019-04-10T13:16:52.110Z,28.90
2019-04-10T13:19:25.211Z,26.70
2019-04-10T13:22:00.115Z,26.30
2019-04-10T13:24:37.554Z,29.30
2019-04-10T13:27:12.607Z,26.40
2019-04-10T13:29:50.900Z,28.50
2019-04-10T13:32:23.990Z,26.80
2019-04-10T13:34:54.447Z,25.70
2019-04-10T13:37:24.909Z,26.30
2019-04-10T13:39:55.479Z,27.00
2019-04-10T13:42:25.135Z,26.50
2019-04-10T13:45:06.915Z,25.90
2019-04-10T13:47:39.114Z,26.20
2019-04-10T13:50:10.556Z,26.60
2019-04-10T13:52:43.336Z,25.90
2019-04-10T13:55:14.870Z,26.10
2019-04-10T13:57:46.540Z,25.50
2019-04-10T14:00:52.073Z,26.00
2019-04-10T14:03:24.688Z,26.30
2019-04-10T14:05:57.068Z,25.60
2019-04-10T14:08:48.251Z,25.10
2019-04-10T14:11:00.584Z,25.90
2019-04-10T14:13:31.687Z,24.60
2019-04-10T14:16:02.550Z,25.80
2019-04-10T14:18:33.132Z,25.70
2019-04-10T14:21:09.744Z,26.30
2019-04-10T14:23:35.979Z,26.70
2019-04-10T14:26:43.920Z,27.00
2019-04-10T14:29:12.644Z,27.10
2019-04-10T14:31:49.046Z,27.20
2019-04-10T14:34:20.318Z,27.30
2019-04-10T14:36:52.632Z,27.80
2019-04-10T14:39:27.334Z,27.40
2019-04-10T14:41:58.071Z,27.70
2019-04-10T14:44:28.549Z,27.10
2019-04-10T14:47:00.148Z,27.20
2019-04-10T14:49:31.325Z,26.60
2019-04-10T14:52:03.093Z,27.30
2019-04-10T14:54:33.759Z,27.30
2019-04-10T14:57:13.294Z,27.30
2019-04-10T14:59:46.293Z,27.10
2019-04-10T15:02:18.691Z,27.20
2019-04-10T15:04:49.438Z,26.70
2019-04-10T15:07:19.851Z,26.80
2019-04-10T15:09:50.285Z,26.40
2019-04-10T15:12:20.774Z,26.40
2019-04-10T15:14:52.046Z,26.20
2019-04-10T15:17:23.106Z,26.20
2019-04-10T15:19:53.734Z,26.20
2019-04-10T15:22:25.495Z,26.30
2019-04-10T15:24:55.999Z,26.30
2019-04-10T15:27:27.105Z,26.00
2019-04-10T15:29:57.755Z,25.90
2019-04-10T15:32:29.355Z,25.80
2019-04-10T15:35:00.016Z,25.50
2019-04-10T15:37:31.261Z,25.40
2019-04-10T15:40:12.253Z,25.40
2019-04-10T15:42:34.324Z,25.90
2019-04-10T15:45:05.089Z,25.70
2019-04-10T15:47:35.555Z,25.40
2019-04-10T15:50:07.072Z,24.70
2019-04-10T15:52:39.602Z,24.90
2019-04-10T15:55:11.084Z,25.60
2019-04-10T15:57:52.048Z,25.30
2019-04-10T16:00:14.774Z,24.80
2019-04-10T16:02:45.270Z,24.80
2019-04-10T16:05:15.649Z,25.20
2019-04-10T16:07:46.955Z,24.80
2019-04-10T16:10:41.363Z,24.80
2019-04-10T16:13:24.043Z,25.20
2019-04-10T16:15:54.802Z,24.90
2019-04-10T16:18:25.605Z,24.90
2019-04-10T16:20:55.947Z,24.80
2019-04-10T16:23:45.262Z,24.80
2019-04-10T16:26:16.842Z,24.70
2019-04-10T16:28:47.394Z,25.40
2019-04-10T16:31:17.831Z,25.10
2019-04-10T16:33:48.440Z,24.80
2019-04-10T16:36:19.302Z,24.80
2019-04-10T16:38:49.787Z,24.90
2019-04-10T16:41:21.440Z,24.80
2019-04-10T16:43:52.867Z,24.90
2019-04-10T16:46:23.794Z,24.60
2019-04-10T16:48:54.457Z,24.70
2019-04-10T16:51:25.918Z,24.50
2019-04-10T16:53:56.586Z,25.20
2019-04-10T16:56:27.153Z,25.20
2019-04-10T16:58:58.470Z,25.50
2019-04-10T17:01:28.963Z,25.10
2019-04-10T17:03:59.384Z,25.50
2019-04-10T17:06:30.347Z,25.30
2019-04-10T17:09:00.896Z,25.30
2019-04-10T17:11:33.437Z,25.30
2019-04-10T17:14:04.814Z,25.50
2019-04-10T17:16:35.260Z,25.40
2019-04-10T17:19:05.903Z,25.80
2019-04-10T17:21:36.390Z,26.10
2019-04-10T17:24:07.179Z,26.30
2019-04-10T17:26:37.637Z,25.50
2019-04-10T17:29:09.080Z,24.90
2019-04-10T17:31:40.426Z,25.70
2019-04-10T17:34:10.958Z,26.10
2019-04-10T17:36:41.412Z,25.30
2019-04-10T17:39:16.134Z,26.00
2019-04-10T17:41:48.157Z,26.40
2019-04-10T17:44:18.716Z,25.50
2019-04-10T17:46:49.225Z,26.80
2019-04-10T17:49:19.689Z,26.20
2019-04-10T17:51:50.307Z,26.50
2019-04-10T17:56:52.725Z,26.50
2019-04-10T17:59:24.583Z,27.80
2019-04-10T18:01:59.083Z,28.20
2019-04-10T18:04:29.796Z,28.20
2019-04-10T18:07:00.622Z,28.10
2019-04-10T18:09:32.713Z,28.70
2019-04-10T18:12:03.918Z,29.20
2019-04-10T18:14:37.579Z,30.30
2019-04-10T18:17:07.819Z,30.90
2019-04-10T18:19:38.912Z,31.10
2019-04-10T18:22:10.145Z,31.10
2019-04-10T18:24:40.625Z,31.00
2019-04-10T18:27:12.144Z,30.80
2019-04-10T18:29:43.478Z,30.70
2019-04-10T18:32:14.013Z,30.80
2019-04-10T18:34:44.622Z,30.50
2019-04-10T18:37:19.861Z,30.20
2019-04-10T18:39:48.658Z,30.00
2019-04-10T18:42:19.482Z,30.10
2019-04-10T18:44:50.176Z,30.10
2019-04-10T18:47:20.786Z,30.00
2019-04-10T18:49:52.248Z,30.00
2019-04-10T18:52:23.474Z,30.00
2019-04-10T18:54:54.086Z,29.80
2019-04-10T18:57:24.488Z,30.30
2019-04-10T19:00:10.118Z,29.60
2019-04-10T19:03:05.851Z,29.60
2019-04-10T19:05:38.730Z,29.50
2019-04-10T19:08:12.481Z,29.30
2019-04-10T19:10:41.269Z,29.30
2019-04-10T19:13:12.916Z,29.10
2019-04-10T19:15:44.662Z,29.10
2019-04-10T19:18:15.402Z,29.10
2019-04-10T19:20:46.913Z,29.10
2019-04-10T19:23:17.469Z,28.90
2019-04-10T19:25:48.940Z,28.90
2019-04-10T19:28:30.764Z,28.90
2019-04-10T19:31:09.589Z,28.80
2019-04-10T19:33:28.860Z,28.80
2019-04-10T19:35:59.456Z,28.70
2019-04-10T19:38:29.980Z,28.50
2019-04-10T19:41:00.561Z,28.50
2019-04-10T19:43:32.109Z,28.50
2019-04-10T19:46:04.073Z,28.40
2019-04-10T19:48:35.215Z,28.40
2019-04-10T19:51:05.835Z,28.30
2019-04-10T19:53:37.427Z,28.10
2019-04-10T19:56:06.908Z,28.10
2019-04-10T19:58:38.430Z,28.10
2019-04-10T20:01:09.075Z,28.10
2019-04-10T20:06:30.691Z,28.00
2019-04-10T20:09:01.081Z,28.00
2019-04-10T20:11:39.047Z,27.90
2019-04-10T20:14:06.324Z,27.90
2019-04-10T20:16:37.521Z,27.90
2019-04-10T20:19:08.069Z,27.80
2019-04-10T20:21:38.483Z,27.90
2019-04-10T20:24:08.964Z,27.80
2019-04-10T20:26:39.463Z,27.80
2019-04-10T20:29:10.832Z,27.80
2019-04-10T20:31:41.592Z,27.80
2019-04-10T20:34:13.539Z,27.80
2019-04-10T20:36:44.819Z,27.80
2019-04-10T20:39:15.523Z,27.80
2019-04-10T20:41:51.896Z,27.80
2019-04-10T20:44:18.736Z,27.80
2019-04-10T20:46:48.678Z,27.80
2019-04-10T20:49:20.328Z,27.80
2019-04-10T20:51:50.855Z,27.80
2019-04-10T20:54:22.424Z,27.80
2019-04-10T20:56:52.861Z,27.70
2019-04-10T20:59:24.307Z,27.80
2019-04-10T21:01:55.815Z,27.80
2019-04-10T21:04:26.235Z,27.70
2019-04-10T21:06:56.692Z,27.80
2019-04-10T21:09:27.795Z,27.70
2019-04-10T21:12:05.318Z,27.70
2019-04-10T21:14:30.283Z,27.70
2019-04-10T21:17:00.762Z,27.70
2019-04-10T21:19:31.311Z,27.70
2019-04-10T21:22:01.739Z,27.70
2019-04-10T21:24:32.078Z,27.70
2019-04-10T21:27:03.348Z,27.70
2019-04-10T21:30:04.849Z,27.70
2019-04-10T21:32:58.292Z,27.70
2019-04-10T21:35:32.994Z,27.70
2019-04-10T21:38:04.813Z,27.60
2019-04-10T21:40:35.200Z,27.60
2019-04-10T21:43:06.079Z,27.70
2019-04-10T21:45:36.391Z,27.60
2019-04-10T21:48:06.749Z,27.60
2019-04-10T21:50:37.721Z,27.60
2019-04-10T21:53:08.252Z,27.60
2019-04-10T21:55:39.597Z,27.60
2019-04-10T21:58:10.284Z,27.60
2019-04-10T22:00:57.332Z,27.60
2019-04-10T22:03:29.617Z,27.60
2019-04-10T22:06:26.069Z,27.60
2019-04-10T22:09:10.373Z,27.60
2019-04-10T22:11:43.358Z,27.70
2019-04-10T22:14:14.977Z,27.80
2019-04-10T22:16:46.370Z,27.80
2019-04-10T22:19:16.886Z,27.80
2019-04-10T22:21:48.148Z,27.80
2019-04-10T22:24:18.768Z,27.80
2019-04-10T22:26:50.145Z,27.80
2019-04-10T22:29:21.769Z,27.80
2019-04-10T22:31:53.384Z,27.80
2019-04-10T22:34:24.187Z,27.70
2019-04-10T22:36:55.576Z,27.70
2019-04-10T22:39:25.964Z,27.80
2019-04-10T22:41:56.905Z,27.70
2019-04-10T22:44:34.727Z,27.80
2019-04-10T22:47:00.884Z,27.70
2019-04-10T22:49:32.821Z,27.70
2019-04-10T22:52:03.349Z,27.70
2019-04-10T22:54:34.600Z,27.70
2019-04-10T22:57:05.147Z,27.70
2019-04-10T22:59:35.792Z,27.70
2019-04-10T23:02:11.108Z,27.70
2019-04-10T23:04:39.123Z,27.70
2019-04-10T23:07:09.671Z,27.70
2019-04-10T23:09:40.306Z,27.70
2019-04-10T23:12:10.894Z,27.70
2019-04-10T23:14:41.415Z,27.70
2019-04-10T23:17:12.685Z,27.70
2019-04-10T23:19:43.186Z,27.70
2019-04-10T23:22:13.745Z,27.70
2019-04-10T23:24:44.080Z,27.60
2019-04-10T23:27:14.708Z,27.60
2019-04-10T23:29:45.135Z,27.70
2019-04-10T23:32:15.552Z,27.70
2019-04-10T23:34:47.114Z,27.70
2019-04-10T23:37:18.415Z,27.60
2019-04-10T23:39:48.910Z,27.60
2019-04-10T23:42:19.446Z,27.70
2019-04-10T23:44:51.216Z,27.70
2019-04-10T23:47:22.178Z,27.70
2019-04-10T23:49:52.649Z,27.60
2019-04-10T23:52:23.419Z,27.70
2019-04-10T23:54:54.005Z,27.60
2019-04-10T23:57:25.301Z,27.60
2019-04-10T23:59:55.820Z,27.60
